Time;durP1;ratioP1;P1;durP2;ratioP2;P2;SDS_P1;SDS_P2;PMS_P1;PMS_P2;Temp;Humidity;BMP_temperature;BMP_pressure;BME280_temperature;BME280_humidity;BME280_pressure;Samples;Min_cycle;Max_cycle;Signal;HPM_P1;HPM_P2
2023/12/24 00:01:44;;;;;;;3.37;2.00;;;2.50;99.90;;;;;;7809280;28;20175;-87
2023/12/24 00:05:30;;;;;;;2.97;2.17;;;2.60;99.90;;;;;;7807838;28;20883;-87
2023/12/24 00:09:15;;;;;;;2.60;2.10;;;2.80;99.90;;;;;;7809799;28;20178;-87
2023/12/24 00:13:01;;;;;;;1.93;1.77;;;3.00;99.90;;;;;;7809284;28;20179;-87
2023/12/24 00:16:47;;;;;;;2.73;2.07;;;3.20;99.90;;;;;;7792913;28;20207;-87
2023/12/24 00:20:32;;;;;;;4.37;2.40;;;3.10;99.90;;;;;;7808406;28;20196;-87
2023/12/24 00:24:18;;;;;;;2.87;2.30;;;2.80;99.90;;;;;;7838116;28;20338;-88
2023/12/24 00:28:04;;;;;;;5.43;2.33;;;2.90;99.90;;;;;;7840372;28;20217;-86
2023/12/24 00:31:50;;;;;;;3.80;2.57;;;2.80;99.90;;;;;;7839079;28;20221;-87
2023/12/24 00:35:35;;;;;;;2.40;2.20;;;2.90;99.90;;;;;;7838926;28;20222;-86
2023/12/24 00:39:21;;;;;;;3.20;2.10;;;3.10;99.90;;;;;;7838485;28;20225;-87
2023/12/24 00:43:07;;;;;;;3.00;2.20;;;3.20;99.90;;;;;;7813846;28;20190;-86
2023/12/24 00:46:53;;;;;;;2.87;2.10;;;3.40;99.90;;;;;;7807555;28;20285;-87
2023/12/24 00:50:38;;;;;;;1.70;1.40;;;3.40;99.90;;;;;;7807558;28;20209;-87
2023/12/24 00:54:24;;;;;;;2.87;1.33;;;3.60;99.90;;;;;;7806352;28;20193;-87
2023/12/24 00:58:09;;;;;;;2.70;1.40;;;3.70;99.90;;;;;;7808958;28;20206;-87
2023/12/24 01:01:56;;;;;;;2.70;1.37;;;4.00;99.90;;;;;;7808476;28;20645;-87
2023/12/24 01:05:42;;;;;;;1.47;1.30;;;4.00;99.90;;;;;;7806052;28;20219;-87
2023/12/24 01:09:27;;;;;;;1.40;1.20;;;4.00;99.90;;;;;;7807207;28;20205;-87
2023/12/24 01:13:18;;;;;;;1.33;0.80;;;4.10;99.90;;;;;;7807081;28;20187;-88
2023/12/24 01:17:04;;;;;;;0.87;0.70;;;4.20;99.90;;;;;;7807289;28;20202;-88
2023/12/24 01:20:50;;;;;;;0.77;0.77;;;4.20;99.90;;;;;;7802319;28;20285;-88
2023/12/24 01:24:35;;;;;;;0.80;0.60;;;4.20;99.90;;;;;;7816100;28;20202;-87
2023/12/24 01:28:21;;;;;;;1.10;0.90;;;4.10;99.90;;;;;;7811624;28;20210;-88
2023/12/24 01:32:07;;;;;;;1.60;0.90;;;4.30;99.90;;;;;;7808072;28;20179;-88
2023/12/24 01:35:52;;;;;;;1.13;1.00;;;4.40;99.90;;;;;;7849981;28;20210;-88
2023/12/24 01:39:38;;;;;;;1.30;1.00;;;4.30;99.90;;;;;;7845038;28;20205;-88
2023/12/24 01:43:23;;;;;;;3.23;1.33;;;4.30;99.90;;;;;;7806416;28;20179;-88
2023/12/24 01:47:09;;;;;;;1.97;1.07;;;4.40;99.90;;;;;;7805286;28;20226;-87
2023/12/24 01:50:57;;;;;;;1.10;1.00;;;4.60;99.90;;;;;;7806456;28;20179;-88
2023/12/24 01:54:45;;;;;;;2.27;1.30;;;4.60;99.90;;;;;;7805729;28;20182;-88
2023/12/24 01:58:31;;;;;;;1.80;0.87;;;4.70;99.90;;;;;;7806274;28;20229;-88
2023/12/24 02:02:18;;;;;;;1.00;0.90;;;4.70;99.90;;;;;;7806644;28;20178;-88
2023/12/24 02:06:03;;;;;;;1.83;1.00;;;4.70;99.90;;;;;;7805799;28;20218;-88
2023/12/24 02:09:49;;;;;;;1.20;0.90;;;4.70;99.90;;;;;;7806357;28;20214;-88
2023/12/24 02:13:35;;;;;;;1.10;0.80;;;4.60;99.90;;;;;;7806782;28;20183;-89
2023/12/24 02:17:22;;;;;;;0.60;0.60;;;4.70;99.90;;;;;;7806696;28;20281;-90
2023/12/24 02:21:08;;;;;;;0.80;0.67;;;4.70;99.90;;;;;;7807589;28;20712;-90
2023/12/24 02:24:56;;;;;;;1.13;0.80;;;4.70;99.90;;;;;;7806854;28;20199;-90
2023/12/24 02:28:44;;;;;;;1.17;0.70;;;4.70;99.90;;;;;;7806351;28;20174;-90
2023/12/24 02:32:31;;;;;;;2.20;0.80;;;4.70;99.90;;;;;;7807538;28;20242;-90
2023/12/24 02:36:17;;;;;;;0.73;0.70;;;4.80;99.90;;;;;;7807574;28;20225;-92
2023/12/24 02:40:03;;;;;;;1.50;0.80;;;4.80;99.90;;;;;;7812060;28;20190;-92
2023/12/24 02:43:48;;;;;;;1.00;0.70;;;4.70;99.90;;;;;;7812088;28;20190;-90
2023/12/24 02:47:35;;;;;;;0.70;0.70;;;4.80;99.90;;;;;;7812149;28;20229;-91
2023/12/24 02:51:20;;;;;;;0.60;0.60;;;4.70;99.90;;;;;;7812466;28;20178;-91
2023/12/24 02:55:06;;;;;;;1.43;0.90;;;4.80;99.90;;;;;;7811841;28;20289;-91
2023/12/24 02:58:52;;;;;;;1.73;0.97;;;4.80;99.90;;;;;;7811838;28;20182;-92
2023/12/24 03:02:38;;;;;;;1.00;0.60;;;4.80;99.90;;;;;;7811668;28;20636;-91
2023/12/24 03:06:23;;;;;;;0.93;0.70;;;4.80;99.90;;;;;;7811519;28;20224;-92
2023/12/24 03:10:09;;;;;;;1.10;0.90;;;4.80;99.90;;;;;;7811510;28;20221;-91
2023/12/24 03:13:56;;;;;;;1.80;1.23;;;4.80;99.90;;;;;;7811900;28;20179;-91
2023/12/24 03:17:42;;;;;;;4.53;0.93;;;4.80;99.90;;;;;;7811255;28;20260;-91
2023/12/24 03:21:27;;;;;;;1.10;0.90;;;4.80;99.90;;;;;;7811312;28;20190;-91
2023/12/24 03:25:13;;;;;;;1.17;0.90;;;4.80;99.90;;;;;;7810827;28;20215;-91
2023/12/24 03:29:00;;;;;;;2.03;1.00;;;4.90;99.90;;;;;;7811053;28;20190;-91
2023/12/24 03:32:46;;;;;;;2.37;0.97;;;4.90;99.90;;;;;;7830637;28;20175;-93
2023/12/24 03:36:31;;;;;;;0.87;0.73;;;4.90;99.90;;;;;;7830253;28;20703;-90
2023/12/24 03:40:17;;;;;;;1.63;1.10;;;4.90;99.90;;;;;;7810607;28;20186;-91
2023/12/24 03:44:03;;;;;;;1.23;0.90;;;4.90;99.90;;;;;;7809218;28;20667;-90
2023/12/24 03:47:49;;;;;;;1.20;0.83;;;5.00;99.90;;;;;;7809117;28;20297;-90
2023/12/24 03:51:35;;;;;;;1.10;1.00;;;5.10;99.90;;;;;;7811340;28;20557;-90
2023/12/24 03:55:21;;;;;;;1.53;1.00;;;5.00;99.90;;;;;;7809371;28;20202;-90
2023/12/24 03:59:06;;;;;;;0.90;0.70;;;5.00;99.90;;;;;;7810095;28;20187;-90
2023/12/24 04:02:54;;;;;;;1.40;0.73;;;5.00;99.90;;;;;;7809694;28;20273;-90
2023/12/24 04:06:40;;;;;;;0.63;0.63;;;5.10;99.90;;;;;;7808827;28;20214;-90
2023/12/24 04:10:26;;;;;;;1.70;0.70;;;5.20;99.90;;;;;;7809560;28;20185;-90
2023/12/24 04:14:12;;;;;;;1.57;0.70;;;5.10;99.90;;;;;;7810070;28;20242;-90
2023/12/24 04:17:57;;;;;;;2.20;0.80;;;5.20;99.90;;;;;;7809316;28;20215;-90
2023/12/24 04:21:43;;;;;;;0.70;0.70;;;5.20;99.90;;;;;;7809801;28;20183;-90
2023/12/24 04:25:29;;;;;;;2.87;0.70;;;5.20;99.90;;;;;;7809682;28;20268;-91
2023/12/24 04:29:14;;;;;;;1.93;0.70;;;5.20;99.90;;;;;;7809066;28;20209;-90
2023/12/24 04:33:00;;;;;;;0.73;0.60;;;5.20;99.90;;;;;;7808805;28;21744;-90
2023/12/24 04:36:46;;;;;;;3.70;0.80;;;5.30;99.90;;;;;;7808352;28;20281;-90
2023/12/24 04:40:31;;;;;;;2.23;0.70;;;5.20;99.90;;;;;;7808729;28;20189;-90
2023/12/24 04:44:17;;;;;;;0.60;0.60;;;5.20;99.90;;;;;;7808103;28;20207;-90
2023/12/24 04:48:03;;;;;;;1.07;0.70;;;5.20;99.90;;;;;;7829937;23;20222;-91
2023/12/24 04:51:48;;;;;;;1.77;0.57;;;5.20;99.90;;;;;;7791277;28;20179;-89
2023/12/24 04:55:35;;;;;;;1.30;0.70;;;5.20;99.90;;;;;;7814370;28;20209;-90
2023/12/24 04:59:21;;;;;;;1.17;0.57;;;5.20;99.90;;;;;;7821531;28;20182;-89
2023/12/24 05:03:06;;;;;;;0.50;0.50;;;5.30;99.90;;;;;;7821341;28;20222;-91
2023/12/24 05:06:52;;;;;;;2.00;0.80;;;5.30;99.90;;;;;;7820170;28;20241;-90
2023/12/24 05:10:38;;;;;;;1.17;0.50;;;5.30;99.90;;;;;;7808852;28;20171;-91
2023/12/24 05:14:23;;;;;;;1.23;0.50;;;5.30;99.90;;;;;;7789526;28;20714;-92
2023/12/24 05:18:09;;;;;;;0.50;0.50;;;5.40;99.90;;;;;;7800914;28;20243;-91
2023/12/24 05:21:55;;;;;;;2.77;0.57;;;5.30;99.90;;;;;;7826655;28;20185;-90
2023/12/24 05:25:40;;;;;;;0.77;0.30;;;5.40;99.90;;;;;;7845088;28;20198;-92
2023/12/24 05:29:26;;;;;;;1.80;0.70;;;5.40;99.90;;;;;;7820448;28;20209;-89
2023/12/24 05:33:11;;;;;;;0.30;0.30;;;5.30;99.90;;;;;;7820378;28;20703;-92
2023/12/24 05:37:00;;;;;;;0.50;0.40;;;5.40;99.90;;;;;;7819566;28;20290;-90
2023/12/24 05:40:46;;;;;;;0.20;0.20;;;5.40;99.90;;;;;;7820177;28;20189;-90
2023/12/24 05:44:34;;;;;;;0.93;0.30;;;5.40;99.90;;;;;;7811321;28;20194;-89
2023/12/24 05:48:19;;;;;;;0.40;0.30;;;5.50;99.90;;;;;;7793832;28;20748;-91
2023/12/24 05:52:05;;;;;;;1.23;0.23;;;5.40;99.90;;;;;;7818518;28;20287;-91
2023/12/24 05:55:50;;;;;;;1.60;0.30;;;5.40;99.90;;;;;;7837105;28;20559;-90
2023/12/24 05:59:37;;;;;;;0.40;0.10;;;5.50;99.90;;;;;;7837798;28;20560;-88
2023/12/24 06:03:24;;;;;;;0.10;0.10;;;5.50;99.90;;;;;;7819298;28;20295;-90
2023/12/24 06:07:09;;;;;;;0.40;0.20;;;5.50;99.90;;;;;;7818727;28;20671;-90
2023/12/24 06:10:55;;;;;;;0.30;0.20;;;5.50;99.90;;;;;;7817140;28;21454;-91
2023/12/24 06:14:41;;;;;;;2.00;0.30;;;5.60;99.90;;;;;;7820090;28;20202;-90
2023/12/24 06:18:26;;;;;;;0.23;0.10;;;5.60;99.90;;;;;;7821436;28;20238;-92
2023/12/24 06:22:12;;;;;;;0.20;0.20;;;5.60;99.90;;;;;;7818346;28;20200;-89
2023/12/24 06:25:58;;;;;;;0.40;0.30;;;5.60;99.90;;;;;;7860066;28;20202;-90
2023/12/24 06:29:44;;;;;;;0.40;0.40;;;5.70;99.90;;;;;;7807821;28;20169;-92
2023/12/24 06:33:30;;;;;;;0.40;0.30;;;5.70;99.90;;;;;;7829094;28;20205;-91
2023/12/24 06:37:15;;;;;;;0.33;0.30;;;5.70;99.90;;;;;;7846162;28;20521;-90
2023/12/24 06:41:01;;;;;;;0.57;0.30;;;5.60;99.90;;;;;;7829641;28;20177;-91
2023/12/24 06:44:47;;;;;;;0.83;0.20;;;5.70;99.90;;;;;;7819243;28;20296;-89
2023/12/24 06:48:33;;;;;;;0.40;0.30;;;5.70;99.90;;;;;;7823773;28;20251;-91
2023/12/24 06:52:19;;;;;;;0.30;0.30;;;5.60;99.90;;;;;;7839698;28;20231;-89
2023/12/24 06:56:05;;;;;;;0.30;0.30;;;5.70;99.90;;;;;;7817066;28;20229;-91
2023/12/24 06:59:51;;;;;;;1.00;0.40;;;5.70;99.90;;;;;;7798430;28;20182;-89
2023/12/24 07:03:36;;;;;;;0.60;0.33;;;5.70;99.90;;;;;;7822846;28;20211;-90
2023/12/24 07:07:22;;;;;;;1.07;0.40;;;5.70;99.90;;;;;;7861668;28;20194;-90
2023/12/24 07:11:08;;;;;;;0.40;0.40;;;5.90;99.90;;;;;;7816680;28;20181;-91
2023/12/24 07:14:53;;;;;;;0.50;0.50;;;5.70;99.90;;;;;;7828099;28;20198;-90
2023/12/24 07:18:39;;;;;;;0.33;0.33;;;5.80;99.90;;;;;;7825481;28;20243;-89
2023/12/24 07:22:25;;;;;;;0.30;0.30;;;5.70;99.90;;;;;;7823612;28;20193;-90
2023/12/24 07:26:10;;;;;;;0.50;0.50;;;5.90;99.90;;;;;;7836834;28;20205;-90
2023/12/24 07:29:56;;;;;;;0.60;0.60;;;5.90;99.90;;;;;;7824649;28;20252;-88
2023/12/24 07:33:41;;;;;;;2.67;0.63;;;5.90;99.90;;;;;;7820334;28;20998;-89
2023/12/24 07:37:27;;;;;;;0.73;0.53;;;6.00;99.90;;;;;;7858088;28;20659;-90
2023/12/24 07:41:13;;;;;;;2.00;0.60;;;6.00;99.90;;;;;;7824172;28;20277;-90
2023/12/24 07:44:58;;;;;;;0.67;0.50;;;6.00;99.90;;;;;;7823437;28;20247;-89
2023/12/24 07:48:44;;;;;;;0.40;0.40;;;6.10;99.90;;;;;;7824536;28;20776;-91
2023/12/24 07:52:29;;;;;;;0.77;0.50;;;6.10;99.90;;;;;;7823330;28;20267;-90
2023/12/24 07:56:15;;;;;;;2.00;0.53;;;6.20;99.90;;;;;;7824758;28;20581;-91
2023/12/24 08:00:07;;;;;;;0.77;0.60;;;6.20;99.90;;;;;;7819423;28;20193;-91
2023/12/24 08:03:53;;;;;;;0.53;0.53;;;6.30;99.90;;;;;;7823177;28;20201;-91
2023/12/24 08:07:39;;;;;;;0.63;0.50;;;6.20;99.90;;;;;;7828699;28;20217;-91
2023/12/24 08:11:25;;;;;;;0.47;0.40;;;6.30;99.90;;;;;;7828130;28;20186;-91
2023/12/24 08:15:11;;;;;;;0.60;0.40;;;6.20;99.90;;;;;;7825216;28;20206;-91
2023/12/24 08:18:56;;;;;;;1.33;0.50;;;6.30;99.90;;;;;;7826211;28;20193;-92
2023/12/24 08:22:42;;;;;;;1.37;0.70;;;6.40;99.90;;;;;;7821407;28;20800;-90
2023/12/24 08:26:28;;;;;;;0.97;0.30;;;6.40;99.90;;;;;;7822998;28;20201;-89
2023/12/24 08:30:13;;;;;;;0.70;0.70;;;6.40;99.90;;;;;;7843241;28;20224;-91
2023/12/24 08:33:59;;;;;;;0.60;0.60;;;6.50;99.90;;;;;;7828457;28;20208;-89
2023/12/24 08:37:45;;;;;;;1.67;0.50;;;6.50;99.90;;;;;;7822402;28;20185;-92
2023/12/24 08:41:31;;;;;;;0.50;0.50;;;6.60;99.90;;;;;;7816421;28;20182;-91
2023/12/24 08:45:18;;;;;;;0.70;0.70;;;6.50;99.90;;;;;;7838781;28;20201;-91
2023/12/24 08:49:04;;;;;;;1.07;0.63;;;6.60;99.90;;;;;;7841824;28;20193;-90
2023/12/24 08:52:49;;;;;;;0.67;0.60;;;6.70;99.90;;;;;;7824405;28;20178;-92
2023/12/24 08:56:35;;;;;;;0.50;0.50;;;6.70;99.90;;;;;;7803628;28;20185;-91
2023/12/24 09:00:21;;;;;;;0.67;0.50;;;6.80;99.90;;;;;;7822783;28;20182;-91
2023/12/24 09:04:07;;;;;;;0.70;0.50;;;6.80;99.90;;;;;;7844061;28;20208;-91
2023/12/24 09:07:53;;;;;;;0.43;0.43;;;6.80;99.90;;;;;;7824442;28;20186;-91
2023/12/24 09:11:39;;;;;;;0.70;0.70;;;6.90;99.90;;;;;;7825679;28;20188;-91
2023/12/24 09:15:24;;;;;;;0.53;0.40;;;6.90;99.90;;;;;;7823621;28;20210;-91
2023/12/24 09:19:10;;;;;;;0.80;0.70;;;7.00;99.90;;;;;;7823549;28;20514;-91
2023/12/24 09:22:59;;;;;;;1.43;0.60;;;7.00;99.90;;;;;;7827048;28;20212;-91
2023/12/24 09:26:44;;;;;;;1.00;0.80;;;7.00;99.90;;;;;;7809718;28;20663;-90
2023/12/24 09:30:30;;;;;;;0.90;0.90;;;7.00;99.90;;;;;;7822559;28;20552;-88
2023/12/24 09:34:15;;;;;;;1.20;1.00;;;7.10;99.90;;;;;;7825603;28;20202;-89
2023/12/24 09:38:02;;;;;;;1.03;0.90;;;7.10;99.90;;;;;;7838730;28;20671;-88
2023/12/24 09:41:49;;;;;;;7.13;0.97;;;7.30;99.90;;;;;;7819417;28;20204;-87
2023/12/24 09:45:34;;;;;;;1.13;0.60;;;7.40;99.90;;;;;;7836815;28;20608;-87
2023/12/24 09:49:20;;;;;;;0.70;0.47;;;7.60;99.90;;;;;;7819878;28;20211;-88
2023/12/24 09:53:06;;;;;;;1.13;0.70;;;7.60;99.90;;;;;;7820678;28;20202;-88
2023/12/24 09:56:52;;;;;;;2.37;1.63;;;7.60;99.90;;;;;;7822175;28;20197;-87
2023/12/24 10:00:37;;;;;;;1.00;0.60;;;7.60;99.90;;;;;;7836717;28;20214;-88
2023/12/24 10:04:23;;;;;;;0.93;0.80;;;7.70;99.90;;;;;;7819155;28;20206;-87
2023/12/24 10:08:17;;;;;;;0.70;0.60;;;7.70;99.90;;;;;;7816211;28;20194;-88
2023/12/24 10:12:07;;;;;;;0.60;0.60;;;7.70;99.90;;;;;;7847863;22;20218;-90
2023/12/24 10:16:02;;;;;;;0.73;0.53;;;7.70;99.90;;;;;;7774683;22;20235;-88
2023/12/24 10:19:48;;;;;;;0.80;0.50;;;7.70;99.90;;;;;;7738592;28;20191;-88
2023/12/24 10:23:34;;;;;;;0.73;0.60;;;7.80;99.90;;;;;;7770000;28;20251;-87
2023/12/24 10:27:21;;;;;;;3.13;0.70;;;7.80;99.90;;;;;;7752318;28;20215;-89
2023/12/24 10:31:09;;;;;;;0.50;0.50;;;7.80;99.90;;;;;;7746522;28;20188;-89
2023/12/24 10:34:57;;;;;;;0.50;0.50;;;7.80;99.90;;;;;;7732038;28;20215;-88
2023/12/24 10:38:43;;;;;;;0.60;0.60;;;7.80;99.90;;;;;;7739314;28;20188;-89
2023/12/24 10:42:29;;;;;;;0.47;0.47;;;7.90;99.90;;;;;;7742787;28;20188;-89
2023/12/24 10:46:15;;;;;;;3.10;1.63;;;7.90;99.90;;;;;;7742081;28;20215;-89
2023/12/24 10:50:03;;;;;;;2.93;1.60;;;7.90;99.90;;;;;;7740930;28;20207;-88
2023/12/24 10:53:49;;;;;;;3.57;2.47;;;8.00;99.90;;;;;;7743941;28;20212;-88
2023/12/24 10:57:41;;;;;;;1.87;1.07;;;8.00;99.90;;;;;;7746986;28;20191;-89
2023/12/24 11:01:27;;;;;;;2.03;1.60;;;8.10;99.90;;;;;;7757157;28;20192;-92
2023/12/24 11:05:48;;;;;;;1.53;1.00;;;8.10;99.90;;;;;;7744621;28;20288;-87
2023/12/24 11:09:34;;;;;;;0.80;0.80;;;8.10;99.90;;;;;;7746517;28;20545;-88
2023/12/24 11:13:32;;;;;;;1.33;0.80;;;8.20;99.90;;;;;;7753617;28;20211;-88
2023/12/24 11:17:36;;;;;;;0.87;0.60;;;8.20;99.90;;;;;;7749778;28;20188;-88
2023/12/24 11:21:22;;;;;;;0.80;0.73;;;8.30;99.90;;;;;;7747940;28;20180;-88
2023/12/24 11:25:17;;;;;;;1.60;0.50;;;8.30;99.90;;;;;;7742296;28;20296;-88
2023/12/24 11:29:42;;;;;;;1.63;1.00;;;8.30;99.90;;;;;;7739217;28;20188;-88
2023/12/24 11:33:34;;;;;;;2.50;0.60;;;8.30;99.90;;;;;;7748961;28;20863;-87
2023/12/24 11:37:31;;;;;;;0.90;0.70;;;8.30;99.90;;;;;;7753369;28;20172;-87
2023/12/24 11:41:18;;;;;;;1.13;0.60;;;8.30;99.90;;;;;;7751523;28;20661;-87
2023/12/24 11:45:04;;;;;;;0.63;0.60;;;8.40;99.90;;;;;;7746990;28;20261;-88
2023/12/24 11:49:00;;;;;;;0.50;0.50;;;8.40;99.90;;;;;;7748210;28;20192;-88
2023/12/24 11:52:48;;;;;;;0.77;0.63;;;8.40;99.90;;;;;;7740352;28;20259;-88
2023/12/24 11:56:37;;;;;;;0.50;0.50;;;8.40;99.90;;;;;;7745134;28;20210;-89
2023/12/24 12:00:25;;;;;;;0.30;0.30;;;8.40;99.90;;;;;;7747008;28;20180;-88
2023/12/24 12:04:10;;;;;;;1.90;0.50;;;8.40;99.90;;;;;;7738179;28;20204;-88
2023/12/24 12:07:56;;;;;;;1.10;0.83;;;8.50;99.90;;;;;;7754636;28;20719;-87
2023/12/24 12:11:42;;;;;;;1.73;0.87;;;8.50;99.90;;;;;;7758505;28;20267;-87
2023/12/24 12:15:27;;;;;;;1.33;0.90;;;8.50;99.90;;;;;;7746450;28;20580;-88
2023/12/24 12:19:14;;;;;;;0.90;0.70;;;8.60;99.90;;;;;;7751431;28;20697;-88
2023/12/24 12:23:00;;;;;;;1.23;0.83;;;8.60;99.90;;;;;;7743922;28;20669;-87
2023/12/24 12:26:46;;;;;;;1.27;0.87;;;8.60;99.90;;;;;;7741602;28;20662;-87
2023/12/24 12:30:32;;;;;;;1.90;1.50;;;8.60;99.90;;;;;;7748709;28;20176;-89
2023/12/24 12:34:17;;;;;;;0.70;0.70;;;8.70;99.90;;;;;;7747371;28;20196;-88
2023/12/24 12:38:03;;;;;;;0.40;0.40;;;8.70;99.90;;;;;;7745693;28;20184;-88
2023/12/24 12:41:48;;;;;;;1.17;0.50;;;8.70;99.90;;;;;;7750029;28;20244;-87
2023/12/24 12:45:37;;;;;;;1.00;0.40;;;8.70;99.90;;;;;;7758639;28;20216;-87
2023/12/24 12:49:23;;;;;;;0.60;0.40;;;8.80;99.90;;;;;;7749178;28;20238;-92
2023/12/24 12:53:10;;;;;;;1.80;0.67;;;8.80;99.90;;;;;;7753572;28;20237;-88
2023/12/24 12:56:57;;;;;;;1.23;0.90;;;8.80;99.90;;;;;;7760499;28;20242;-87
2023/12/24 13:00:46;;;;;;;1.20;0.70;;;8.80;99.90;;;;;;7743771;28;20651;-88
2023/12/24 13:04:34;;;;;;;0.97;0.40;;;8.80;99.90;;;;;;7739246;28;20211;-88
2023/12/24 13:08:20;;;;;;;0.90;0.80;;;8.70;99.90;;;;;;7751596;28;20195;-86
2023/12/24 13:12:06;;;;;;;0.43;0.40;;;8.90;99.90;;;;;;7756547;28;20204;-87
2023/12/24 13:16:08;;;;;;;1.40;1.00;;;8.80;99.90;;;;;;7737379;28;20219;-87
2023/12/24 13:19:54;;;;;;;1.13;1.03;;;8.90;99.90;;;;;;7760529;28;20187;-90
2023/12/24 13:23:39;;;;;;;0.93;0.80;;;8.80;99.90;;;;;;7742869;28;20211;-88
2023/12/24 13:27:25;;;;;;;1.00;0.90;;;8.90;99.90;;;;;;7736233;28;20231;-88
2023/12/24 13:31:11;;;;;;;0.90;0.77;;;8.90;99.90;;;;;;7749572;28;20183;-87
2023/12/24 13:34:56;;;;;;;0.40;0.40;;;8.90;99.90;;;;;;7781831;28;20204;-87
2023/12/24 13:38:42;;;;;;;0.77;0.50;;;8.90;99.90;;;;;;7747503;28;20172;-87
2023/12/24 13:42:28;;;;;;;0.80;0.20;;;8.90;99.90;;;;;;7762140;28;20202;-87
2023/12/24 13:46:14;;;;;;;0.40;0.30;;;8.90;99.90;;;;;;7743553;28;20210;-87
2023/12/24 13:50:00;;;;;;;0.60;0.43;;;8.90;99.90;;;;;;7742087;28;20195;-87
2023/12/24 13:53:47;;;;;;;0.40;0.40;;;8.90;99.90;;;;;;7741062;28;20295;-88
2023/12/24 13:57:36;;;;;;;0.83;0.60;;;8.90;99.90;;;;;;7742176;28;20168;-87
2023/12/24 14:01:24;;;;;;;0.50;0.50;;;8.80;99.90;;;;;;7747125;28;20164;-87
2023/12/24 14:05:11;;;;;;;0.63;0.50;;;8.90;99.90;;;;;;7742411;28;20818;-89
2023/12/24 14:08:58;;;;;;;0.60;0.50;;;8.80;99.90;;;;;;7721538;28;20668;-86
2023/12/24 14:12:49;;;;;;;0.97;0.60;;;8.80;99.90;;;;;;7748157;28;20221;-88
2023/12/24 14:16:36;;;;;;;0.40;0.30;;;8.80;99.90;;;;;;7742955;28;20676;-87
2023/12/24 14:20:21;;;;;;;0.23;0.23;;;8.80;99.90;;;;;;7734035;28;20192;-87
2023/12/24 14:24:07;;;;;;;1.53;0.30;;;8.80;99.90;;;;;;7742955;28;20673;-87
2023/12/24 14:27:53;;;;;;;0.70;0.50;;;8.70;99.90;;;;;;7746158;28;20243;-93
2023/12/24 14:31:38;;;;;;;3.47;0.60;;;8.70;99.90;;;;;;7743615;28;20186;-86
2023/12/24 14:35:24;;;;;;;0.23;0.20;;;8.70;99.90;;;;;;7747911;28;20200;-89
2023/12/24 14:39:09;;;;;;;1.30;0.53;;;8.70;99.90;;;;;;7745534;28;20270;-84
2023/12/24 14:42:55;;;;;;;1.00;0.70;;;8.70;99.90;;;;;;7750166;28;20191;-88
2023/12/24 14:46:41;;;;;;;0.50;0.50;;;8.70;99.90;;;;;;7748813;28;20573;-86
2023/12/24 14:50:27;;;;;;;0.57;0.43;;;8.70;99.90;;;;;;7748946;28;20653;-88
2023/12/24 14:54:12;;;;;;;1.10;1.00;;;8.70;99.90;;;;;;7748860;28;20212;-88
2023/12/24 14:57:58;;;;;;;0.60;0.50;;;8.70;99.90;;;;;;7753001;28;20396;-87
2023/12/24 15:01:45;;;;;;;1.10;1.00;;;8.80;99.90;;;;;;7761304;28;20185;-87
2023/12/24 15:05:30;;;;;;;0.63;0.63;;;8.80;99.90;;;;;;7748818;28;20298;-88
2023/12/24 15:09:16;;;;;;;0.40;0.40;;;8.70;99.90;;;;;;7739821;28;20437;-87
2023/12/24 15:13:03;;;;;;;0.30;0.30;;;8.80;99.90;;;;;;7734188;28;20318;-88
2023/12/24 15:16:48;;;;;;;2.07;0.63;;;8.70;99.90;;;;;;7761153;28;20407;-88
2023/12/24 15:20:34;;;;;;;1.33;0.70;;;8.80;99.90;;;;;;7761703;28;20192;-88
2023/12/24 15:24:19;;;;;;;1.40;1.00;;;8.70;99.90;;;;;;7742314;28;20640;-87
2023/12/24 15:28:05;;;;;;;1.63;1.00;;;8.70;99.90;;;;;;7746202;28;20179;-87
2023/12/24 15:31:52;;;;;;;1.17;0.83;;;8.70;99.90;;;;;;7748480;28;20192;-86
2023/12/24 15:35:41;;;;;;;1.60;1.13;;;8.70;99.90;;;;;;7747524;28;20207;-87
2023/12/24 15:39:26;;;;;;;2.77;1.10;;;8.70;99.90;;;;;;7741563;28;20184;-88
2023/12/24 15:43:12;;;;;;;1.63;1.20;;;8.70;99.90;;;;;;7752405;28;20213;-86
2023/12/24 15:46:58;;;;;;;1.57;1.00;;;8.70;99.90;;;;;;7750553;28;20242;-86
2023/12/24 15:50:43;;;;;;;0.57;0.53;;;8.70;99.90;;;;;;7753471;28;20263;-87
2023/12/24 15:54:30;;;;;;;1.87;1.40;;;8.70;99.90;;;;;;7761344;28;20339;-88
2023/12/24 15:58:16;;;;;;;1.10;0.60;;;8.80;99.90;;;;;;7749076;28;20246;-87
2023/12/24 16:02:02;;;;;;;0.70;0.50;;;8.70;99.90;;;;;;7760554;28;20188;-88
2023/12/24 16:05:48;;;;;;;1.03;0.90;;;8.80;99.90;;;;;;7746333;28;20215;-88
2023/12/24 16:09:33;;;;;;;2.37;1.27;;;8.80;99.90;;;;;;7747335;28;20424;-88
2023/12/24 16:13:19;;;;;;;1.00;0.90;;;8.90;99.90;;;;;;7747775;28;20212;-88
2023/12/24 16:17:04;;;;;;;1.47;0.97;;;8.90;99.90;;;;;;7742370;28;20196;-88
2023/12/24 16:20:50;;;;;;;1.00;0.87;;;8.90;99.90;;;;;;7751205;28;20244;-88
2023/12/24 16:24:39;;;;;;;1.70;1.30;;;8.90;99.90;;;;;;7747360;28;20207;-88
2023/12/24 16:28:24;;;;;;;2.07;1.00;;;9.00;99.90;;;;;;7750727;28;20183;-89
2023/12/24 16:32:14;;;;;;;0.97;0.67;;;9.00;99.90;;;;;;7754506;28;20195;-88
2023/12/24 16:36:00;;;;;;;1.80;1.70;;;8.90;99.90;;;;;;7741075;28;20673;-88
2023/12/24 16:39:46;;;;;;;0.80;0.60;;;9.00;99.90;;;;;;7747100;28;20223;-88
2023/12/24 16:43:32;;;;;;;1.10;0.50;;;9.00;99.90;;;;;;7744305;28;20673;-88
2023/12/24 16:47:17;;;;;;;1.57;1.10;;;9.10;99.90;;;;;;7745630;28;20262;-88
2023/12/24 16:51:03;;;;;;;0.80;0.80;;;9.10;99.90;;;;;;7744916;28;20176;-88
2023/12/24 16:54:49;;;;;;;1.93;1.17;;;9.10;99.90;;;;;;7751211;28;20234;-88
2023/12/24 16:58:34;;;;;;;0.93;0.70;;;9.10;99.90;;;;;;7739917;28;20422;-88
2023/12/24 17:02:21;;;;;;;1.20;0.60;;;9.10;99.90;;;;;;7738477;28;20547;-88
2023/12/24 17:06:07;;;;;;;0.80;0.80;;;9.10;99.90;;;;;;7743178;28;20224;-88
2023/12/24 17:09:52;;;;;;;0.53;0.50;;;9.20;99.90;;;;;;7746839;28;20673;-88
2023/12/24 17:13:40;;;;;;;0.37;0.33;;;9.20;99.90;;;;;;7736518;28;20647;-88
2023/12/24 17:17:27;;;;;;;1.63;0.40;;;9.30;99.90;;;;;;7743261;28;20188;-88
2023/12/24 17:21:12;;;;;;;0.73;0.40;;;9.30;99.90;;;;;;7752367;28;20191;-88
2023/12/24 17:24:58;;;;;;;1.13;0.90;;;9.40;99.90;;;;;;7746741;28;20203;-88
2023/12/24 17:28:44;;;;;;;2.63;2.23;;;9.40;99.90;;;;;;7750420;28;20633;-88
2023/12/24 17:32:29;;;;;;;1.00;0.80;;;9.40;99.90;;;;;;7749466;28;20221;-88
2023/12/24 17:36:21;;;;;;;1.27;1.03;;;9.40;99.90;;;;;;7745579;28;20737;-88
2023/12/24 17:40:08;;;;;;;0.77;0.57;;;9.40;99.90;;;;;;7744584;28;20230;-89
2023/12/24 17:43:54;;;;;;;0.90;0.70;;;9.40;99.90;;;;;;7747028;28;20238;-88
2023/12/24 17:47:40;;;;;;;2.13;1.60;;;9.40;99.90;;;;;;7749250;28;20256;-88
2023/12/24 17:51:25;;;;;;;2.27;1.40;;;9.40;99.90;;;;;;7746158;28;20427;-88
2023/12/24 17:55:11;;;;;;;1.93;1.20;;;9.40;99.90;;;;;;7748998;28;20238;-88
2023/12/24 17:58:56;;;;;;;1.50;1.27;;;9.40;99.90;;;;;;7754904;28;20192;-88
2023/12/24 18:02:42;;;;;;;1.93;1.07;;;9.30;99.90;;;;;;7744120;28;20208;-88
2023/12/24 18:06:28;;;;;;;0.97;0.80;;;9.40;99.90;;;;;;7749865;28;20700;-87
2023/12/24 18:10:15;;;;;;;0.80;0.80;;;9.30;99.90;;;;;;7754820;28;20212;-87
2023/12/24 18:14:01;;;;;;;1.20;0.60;;;9.30;99.90;;;;;;7760379;28;20215;-88
2023/12/24 18:17:47;;;;;;;0.40;0.33;;;9.20;99.90;;;;;;7741764;28;20279;-88
2023/12/24 18:21:32;;;;;;;1.07;0.87;;;9.30;99.90;;;;;;7744302;28;20249;-88
2023/12/24 18:25:18;;;;;;;1.00;0.90;;;9.30;99.90;;;;;;7747294;28;20235;-88
2023/12/24 18:29:05;;;;;;;1.67;1.10;;;9.30;99.90;;;;;;7744040;28;20188;-88
2023/12/24 18:32:50;;;;;;;0.50;0.40;;;9.30;99.90;;;;;;7741696;28;20657;-88
2023/12/24 18:36:36;;;;;;;2.00;0.40;;;9.30;99.90;;;;;;7745420;28;20551;-89
2023/12/24 18:40:22;;;;;;;0.70;0.70;;;9.30;99.90;;;;;;7732601;28;20199;-91
2023/12/24 18:44:08;;;;;;;0.60;0.50;;;9.30;99.90;;;;;;7727048;28;20208;-88
2023/12/24 18:47:53;;;;;;;1.20;0.70;;;9.20;99.90;;;;;;7727748;28;20693;-87
2023/12/24 18:51:39;;;;;;;0.80;0.80;;;9.20;99.90;;;;;;7745468;28;20183;-88
2023/12/24 18:55:25;;;;;;;0.87;0.80;;;9.20;99.90;;;;;;7740452;28;20207;-88
2023/12/24 18:59:11;;;;;;;0.60;0.60;;;9.30;99.90;;;;;;7741078;28;20188;-87
2023/12/24 19:02:56;;;;;;;2.83;0.90;;;9.30;99.90;;;;;;7741579;28;20688;-88
2023/12/24 19:06:43;;;;;;;0.87;0.83;;;9.40;99.90;;;;;;7751186;28;20207;-88
2023/12/24 19:10:29;;;;;;;2.70;0.83;;;9.40;99.90;;;;;;7729960;28;20251;-87
2023/12/24 19:14:14;;;;;;;0.50;0.50;;;9.50;99.90;;;;;;7741160;28;20223;-88
2023/12/24 19:18:00;;;;;;;0.87;0.77;;;9.50;99.90;;;;;;7741748;28;20201;-88
2023/12/24 19:21:48;;;;;;;0.57;0.57;;;9.60;99.90;;;;;;7751585;28;20184;-87
2023/12/24 19:25:33;;;;;;;0.90;0.77;;;9.60;99.90;;;;;;7754909;28;20350;-88
2023/12/24 19:29:19;;;;;;;1.07;0.33;;;9.60;99.90;;;;;;7747707;28;20184;-88
2023/12/24 19:33:06;;;;;;;1.00;0.70;;;9.60;99.90;;;;;;7747219;28;20197;-87
2023/12/24 19:36:52;;;;;;;0.33;0.33;;;9.50;99.90;;;;;;7746367;28;20282;-88
2023/12/24 19:40:38;;;;;;;0.30;0.30;;;9.60;99.90;;;;;;7749734;28;20258;-87
2023/12/24 19:44:24;;;;;;;0.30;0.20;;;9.50;99.90;;;;;;7741340;28;20826;-87
2023/12/24 19:48:10;;;;;;;0.13;0.13;;;9.50;99.90;;;;;;7745817;28;20227;-87
2023/12/24 19:51:55;;;;;;;0.47;0.47;;;9.50;99.90;;;;;;7747342;28;20590;-87
2023/12/24 19:55:42;;;;;;;0.87;0.50;;;9.50;99.90;;;;;;7746618;28;20234;-86